Time;durP1;ratioP1;P1;durP2;ratioP2;P2;SDS_P1;SDS_P2;PMS_P1;PMS_P2;Temp;Humidity;BMP_temperature;BMP_pressure;BME280_temperature;BME280_humidity;BME280_pressure;Samples;Min_cycle;Max_cycle;Signal;HPM_P1;HPM_P2
2022/07/13 00:02:03;;;;;;;6.70;2.47;;;;;;;;;;5034812;28;20037;-69
2022/07/13 00:04:31;;;;;;;8.20;2.60;;;;;;;;;;5035081;28;20120;-69
2022/07/13 00:06:58;;;;;;;3.78;2.10;;;;;;;;;;5034774;28;20446;-69
2022/07/13 00:09:26;;;;;;;5.70;2.05;;;;;;;;;;5033716;28;20045;-69
2022/07/13 00:11:53;;;;;;;4.78;2.05;;;;;;;;;;5034281;28;20487;-69
2022/07/13 00:14:21;;;;;;;3.55;1.90;;;;;;;;;;5034539;28;20076;-69
2022/07/13 00:16:48;;;;;;;5.93;1.77;;;;;;;;;;5034632;28;20049;-69
2022/07/13 00:19:16;;;;;;;4.97;2.10;;;;;;;;;;5034387;28;20471;-69
2022/07/13 00:21:44;;;;;;;3.28;1.83;;;;;;;;;;5034442;28;20052;-69
2022/07/13 00:24:14;;;;;;;4.00;1.65;;;;;;;;;;5034546;28;20041;-69
2022/07/13 00:26:42;;;;;;;6.68;1.95;;;;;;;;;;5034739;28;20065;-69
2022/07/13 00:29:09;;;;;;;6.25;1.90;;;;;;;;;;5033324;28;20403;-69
2022/07/13 00:31:37;;;;;;;5.43;2.00;;;;;;;;;;5033284;28;20042;-69
2022/07/13 00:34:04;;;;;;;4.82;1.50;;;;;;;;;;5032777;28;20049;-69
2022/07/13 00:36:32;;;;;;;3.03;1.50;;;;;;;;;;5034223;28;20450;-69
2022/07/13 00:38:59;;;;;;;5.18;1.80;;;;;;;;;;5032727;28;20041;-69
2022/07/13 00:41:27;;;;;;;6.53;1.60;;;;;;;;;;5034081;28;20510;-69
2022/07/13 00:44:05;;;;;;;6.40;1.90;;;;;;;;;;5016300;28;20037;-69
2022/07/13 00:46:33;;;;;;;6.20;2.00;;;;;;;;;;5032735;28;20046;-69
2022/07/13 00:49:01;;;;;;;3.50;1.70;;;;;;;;;;5033906;28;20042;-69
2022/07/13 00:51:29;;;;;;;7.15;2.35;;;;;;;;;;5032649;28;20466;-69
2022/07/13 00:53:57;;;;;;;3.92;2.05;;;;;;;;;;5033981;28;20398;-69
2022/07/13 00:56:25;;;;;;;7.50;2.83;;;;;;;;;;5032650;28;20045;-69
2022/07/13 00:58:53;;;;;;;5.25;2.30;;;;;;;;;;5032749;28;20042;-69
2022/07/13 01:01:20;;;;;;;4.57;2.10;;;;;;;;;;5032593;28;20041;-69
2022/07/13 01:03:48;;;;;;;3.42;2.00;;;;;;;;;;5032298;28;20048;-69
2022/07/13 01:06:16;;;;;;;4.72;2.97;;;;;;;;;;5032387;28;20080;-69
2022/07/13 01:08:44;;;;;;;2.22;1.67;;;;;;;;;;5032242;28;20052;-69
2022/07/13 01:11:12;;;;;;;6.65;2.55;;;;;;;;;;5033797;28;20399;-69
2022/07/13 01:13:40;;;;;;;4.47;2.22;;;;;;;;;;5032088;28;20051;-69
2022/07/13 01:16:11;;;;;;;5.07;2.22;;;;;;;;;;5032239;28;20041;-69
2022/07/13 01:18:39;;;;;;;3.88;2.50;;;;;;;;;;5032495;28;20100;-68
2022/07/13 01:21:07;;;;;;;4.57;2.20;;;;;;;;;;5015660;28;20073;-69
2022/07/13 01:23:35;;;;;;;6.90;2.13;;;;;;;;;;5032057;28;20133;-69
2022/07/13 01:26:03;;;;;;;3.50;2.00;;;;;;;;;;5033244;28;20037;-69
2022/07/13 01:28:32;;;;;;;2.92;1.98;;;;;;;;;;5033204;28;20038;-69
2022/07/13 01:30:59;;;;;;;4.20;1.83;;;;;;;;;;5031954;28;20060;-69
2022/07/13 01:33:27;;;;;;;5.07;2.35;;;;;;;;;;5033025;28;20034;-69
2022/07/13 01:35:55;;;;;;;5.28;2.25;;;;;;;;;;5033139;28;20072;-69
2022/07/13 01:38:24;;;;;;;4.15;1.90;;;;;;;;;;5031610;28;20033;-69
2022/07/13 01:40:51;;;;;;;5.20;1.77;;;;;;;;;;5031804;28;20195;-69
2022/07/13 01:43:24;;;;;;;3.05;1.55;;;;;;;;;;5031421;28;20037;-69
2022/07/13 01:45:51;;;;;;;4.18;1.70;;;;;;;;;;5031781;28;20145;-69
2022/07/13 01:48:19;;;;;;;4.30;1.60;;;;;;;;;;5031523;28;20048;-69
2022/07/13 01:50:46;;;;;;;3.60;1.67;;;;;;;;;;5031522;28;20079;-69
2022/07/13 01:53:14;;;;;;;6.28;1.98;;;;;;;;;;5031581;28;20048;-69
2022/07/13 01:55:41;;;;;;;4.10;2.50;;;;;;;;;;5031422;28;20049;-69
2022/07/13 01:58:09;;;;;;;5.07;2.05;;;;;;;;;;5031622;28;20479;-69
2022/07/13 02:00:36;;;;;;;4.25;2.22;;;;;;;;;;5031567;28;20055;-69
2022/07/13 02:03:04;;;;;;;4.07;2.13;;;;;;;;;;5031204;28;20048;-69
2022/07/13 02:05:32;;;;;;;4.72;1.70;;;;;;;;;;5031534;28;20072;-69
2022/07/13 02:07:59;;;;;;;5.05;1.88;;;;;;;;;;5031031;28;20037;-69
2022/07/13 02:10:36;;;;;;;4.07;1.77;;;;;;;;;;5031269;28;20049;-68
2022/07/13 02:13:06;;;;;;;3.78;2.13;;;;;;;;;;5031057;28;20052;-69
2022/07/13 02:15:34;;;;;;;4.97;2.08;;;;;;;;;;5031184;28;20073;-69
2022/07/13 02:18:03;;;;;;;2.88;2.10;;;;;;;;;;5031199;28;20124;-69
2022/07/13 02:20:32;;;;;;;6.97;2.65;;;;;;;;;;5031171;28;20045;-69
2022/07/13 02:23:00;;;;;;;2.88;1.67;;;;;;;;;;5032428;28;20060;-68
2022/07/13 02:25:27;;;;;;;3.55;2.05;;;;;;;;;;5031045;28;20554;-68
2022/07/13 02:27:55;;;;;;;2.60;1.80;;;;;;;;;;5031069;28;20048;-68
2022/07/13 02:30:24;;;;;;;3.45;2.08;;;;;;;;;;5030971;28;20049;-68
2022/07/13 02:32:55;;;;;;;5.50;2.10;;;;;;;;;;5031351;28;20052;-68
2022/07/13 02:35:24;;;;;;;1.98;1.83;;;;;;;;;;5035227;28;20037;-69
2022/07/13 02:37:51;;;;;;;3.17;2.05;;;;;;;;;;5035169;28;20103;-69
2022/07/13 02:40:19;;;;;;;2.70;2.00;;;;;;;;;;5035169;28;20040;-69
2022/07/13 02:42:47;;;;;;;3.67;2.10;;;;;;;;;;5036218;28;20562;-69
2022/07/13 02:45:15;;;;;;;5.00;2.40;;;;;;;;;;5035169;28;20064;-69
2022/07/13 02:47:43;;;;;;;8.35;3.13;;;;;;;;;;5034869;28;20407;-69
2022/07/13 02:50:12;;;;;;;4.85;2.80;;;;;;;;;;5034940;28;20522;-69
2022/07/13 02:52:40;;;;;;;9.13;5.53;;;;;;;;;;5034744;28;20149;-69
2022/07/13 02:55:08;;;;;;;7.13;4.72;;;;;;;;;;5034705;28;20495;-69
2022/07/13 02:57:36;;;;;;;7.78;5.28;;;;;;;;;;5034948;28;20403;-69
2022/07/13 03:00:07;;;;;;;7.60;5.68;;;;;;;;;;5034954;28;20045;-69
2022/07/13 03:02:35;;;;;;;7.63;4.20;;;;;;;;;;5036136;28;20068;-69
2022/07/13 03:05:04;;;;;;;9.07;4.93;;;;;;;;;;5034785;28;20069;-69
2022/07/13 03:07:33;;;;;;;11.88;5.45;;;;;;;;;;5034355;28;20092;-69
2022/07/13 03:10:01;;;;;;;7.40;5.25;;;;;;;;;;5035820;28;20045;-69
2022/07/13 03:12:33;;;;;;;6.25;4.10;;;;;;;;;;5034220;28;20076;-69
2022/07/13 03:15:01;;;;;;;5.63;3.53;;;;;;;;;;5034373;28;20124;-69
2022/07/13 03:17:29;;;;;;;5.75;3.60;;;;;;;;;;5034335;28;20046;-69
2022/07/13 03:19:57;;;;;;;6.72;4.00;;;;;;;;;;5034422;28;20080;-69
2022/07/13 03:22:24;;;;;;;5.78;3.90;;;;;;;;;;5034077;28;20407;-69
2022/07/13 03:24:53;;;;;;;10.05;6.65;;;;;;;;;;5034216;28;20050;-69
2022/07/13 03:27:20;;;;;;;7.47;5.93;;;;;;;;;;5034159;28;20049;-69
2022/07/13 03:29:48;;;;;;;4.68;2.78;;;;;;;;;;5017731;28;20072;-69
2022/07/13 03:32:16;;;;;;;4.40;3.15;;;;;;;;;;5034168;28;20083;-69
2022/07/13 03:34:43;;;;;;;4.60;2.90;;;;;;;;;;5033990;28;20065;-69
2022/07/13 03:37:14;;;;;;;8.05;6.05;;;;;;;;;;5018013;28;20053;-69
2022/07/13 03:39:42;;;;;;;6.45;3.10;;;;;;;;;;5034014;28;20044;-69
2022/07/13 03:42:10;;;;;;;8.18;5.35;;;;;;;;;;5033750;28;20411;-69
2022/07/13 03:44:38;;;;;;;11.27;4.65;;;;;;;;;;5033850;28;20578;-69
2022/07/13 03:47:05;;;;;;;8.27;3.42;;;;;;;;;;5033917;28;20056;-69
2022/07/13 03:49:34;;;;;;;8.63;3.83;;;;;;;;;;5034026;28;20048;-69
2022/07/13 03:52:02;;;;;;;7.13;3.70;;;;;;;;;;5034931;28;20049;-69
2022/07/13 03:54:31;;;;;;;6.35;4.15;;;;;;;;;;5033293;28;20045;-69
2022/07/13 03:56:58;;;;;;;5.50;3.58;;;;;;;;;;5034846;28;20052;-69
2022/07/13 03:59:26;;;;;;;10.70;6.00;;;;;;;;;;5017257;28;20037;-69
2022/07/13 04:01:54;;;;;;;6.38;5.05;;;;;;;;;;5033496;28;20049;-69
2022/07/13 04:04:22;;;;;;;6.57;3.03;;;;;;;;;;5033374;28;20053;-69
2022/07/13 04:06:50;;;;;;;5.07;2.90;;;;;;;;;;5033481;28;20046;-69
2022/07/13 04:09:17;;;;;;;4.90;2.97;;;;;;;;;;5033412;28;20042;-69
2022/07/13 04:11:45;;;;;;;6.90;3.10;;;;;;;;;;5033667;28;20078;-70
2022/07/13 04:14:13;;;;;;;9.23;3.05;;;;;;;;;;5033264;28;20045;-70
2022/07/13 04:16:40;;;;;;;4.97;3.10;;;;;;;;;;5033241;28;20045;-69
2022/07/13 04:19:09;;;;;;;7.00;3.85;;;;;;;;;;5033543;28;20132;-70
2022/07/13 04:21:38;;;;;;;5.40;3.20;;;;;;;;;;5033114;28;20057;-69
2022/07/13 04:24:06;;;;;;;8.80;3.35;;;;;;;;;;5033083;28;20495;-69
2022/07/13 04:26:34;;;;;;;6.53;3.40;;;;;;;;;;5033146;28;20042;-69
2022/07/13 04:29:02;;;;;;;10.75;3.03;;;;;;;;;;5032816;28;20095;-70
2022/07/13 04:31:31;;;;;;;11.35;3.80;;;;;;;;;;5032895;28;20079;-69
2022/07/13 04:33:59;;;;;;;5.05;2.80;;;;;;;;;;5032759;28;20392;-69
2022/07/13 04:36:27;;;;;;;8.50;3.78;;;;;;;;;;5032994;28;20050;-69
2022/07/13 04:38:55;;;;;;;5.20;3.10;;;;;;;;;;5034144;28;20043;-70
2022/07/13 04:41:22;;;;;;;8.15;4.07;;;;;;;;;;5031474;28;20037;-70
2022/07/13 04:43:52;;;;;;;3.85;2.95;;;;;;;;;;5031096;28;20042;-69
2022/07/13 04:46:24;;;;;;;7.13;3.13;;;;;;;;;;5031428;28;20049;-69
2022/07/13 04:48:54;;;;;;;10.55;5.03;;;;;;;;;;5031207;28;20052;-70
2022/07/13 04:51:21;;;;;;;10.50;3.88;;;;;;;;;;5031833;28;20140;-70
2022/07/13 04:53:50;;;;;;;5.60;2.90;;;;;;;;;;5032046;28;20049;-70
2022/07/13 04:56:17;;;;;;;5.95;3.22;;;;;;;;;;5031475;28;20111;-70
2022/07/13 04:58:45;;;;;;;6.25;2.78;;;;;;;;;;5032665;28;20083;-70
2022/07/13 05:01:12;;;;;;;6.50;3.28;;;;;;;;;;5032454;28;20045;-70
2022/07/13 05:03:52;;;;;;;6.28;2.95;;;;;;;;;;5033398;28;20552;-69
2022/07/13 05:06:21;;;;;;;11.38;3.67;;;;;;;;;;5041556;28;20044;-69
2022/07/13 05:08:49;;;;;;;6.55;3.05;;;;;;;;;;5037586;28;20089;-69
2022/07/13 05:11:16;;;;;;;9.18;3.28;;;;;;;;;;5041259;28;20046;-69
2022/07/13 05:13:46;;;;;;;6.75;3.97;;;;;;;;;;5052339;28;20045;-69
2022/07/13 05:16:14;;;;;;;7.53;3.83;;;;;;;;;;5048719;28;20141;-69
2022/07/13 05:18:42;;;;;;;9.25;3.42;;;;;;;;;;5035375;28;20039;-69
2022/07/13 05:21:15;;;;;;;7.82;3.35;;;;;;;;;;5032240;28;20091;-69
2022/07/13 05:23:43;;;;;;;5.15;3.00;;;;;;;;;;5032441;28;20041;-69
2022/07/13 05:26:12;;;;;;;7.90;3.05;;;;;;;;;;5032100;28;20042;-69
2022/07/13 05:28:42;;;;;;;11.32;4.65;;;;;;;;;;5049121;28;20553;-69
2022/07/13 05:31:12;;;;;;;16.73;4.07;;;;;;;;;;5031739;28;20459;-69
2022/07/13 05:33:40;;;;;;;6.00;2.92;;;;;;;;;;5031982;28;20069;-69
2022/07/13 05:36:14;;;;;;;10.10;3.38;;;;;;;;;;5031898;28;20045;-69
2022/07/13 05:38:43;;;;;;;5.30;2.75;;;;;;;;;;5031844;28;20042;-69
2022/07/13 05:41:10;;;;;;;6.18;2.90;;;;;;;;;;5031762;28;20071;-69
2022/07/13 05:43:40;;;;;;;5.35;2.50;;;;;;;;;;5031838;28;20103;-69
2022/07/13 05:46:10;;;;;;;5.28;2.67;;;;;;;;;;5031554;28;20148;-69
2022/07/13 05:48:37;;;;;;;5.68;2.97;;;;;;;;;;5031394;28;20411;-69
2022/07/13 05:51:06;;;;;;;5.25;3.25;;;;;;;;;;5032977;28;20052;-69
2022/07/13 05:53:54;;;;;;;6.03;3.92;;;;;;;;;;5031177;28;20465;-69
2022/07/13 05:56:23;;;;;;;5.38;2.58;;;;;;;;;;5031397;28;20096;-69
2022/07/13 05:58:50;;;;;;;5.05;2.85;;;;;;;;;;5032650;28;20043;-69
2022/07/13 06:01:18;;;;;;;8.52;2.90;;;;;;;;;;5031500;28;20053;-69
2022/07/13 06:03:45;;;;;;;7.95;2.88;;;;;;;;;;5032641;28;20446;-69
2022/07/13 06:06:13;;;;;;;6.30;2.40;;;;;;;;;;5032773;28;20045;-69
2022/07/13 06:08:40;;;;;;;6.05;3.25;;;;;;;;;;5032595;28;20053;-68
2022/07/13 06:11:08;;;;;;;8.65;2.97;;;;;;;;;;5032486;28;20499;-69
2022/07/13 06:13:35;;;;;;;8.85;3.33;;;;;;;;;;5032379;28;20117;-69
2022/07/13 06:16:03;;;;;;;7.75;3.17;;;;;;;;;;5032289;28;20049;-69
2022/07/13 06:18:30;;;;;;;11.45;3.72;;;;;;;;;;5032498;28;20389;-69
2022/07/13 06:20:58;;;;;;;10.25;3.60;;;;;;;;;;5032459;28;20659;-69
2022/07/13 06:23:26;;;;;;;14.65;3.67;;;;;;;;;;5032804;28;20391;-69
2022/07/13 06:25:54;;;;;;;6.43;2.88;;;;;;;;;;5032218;28;20095;-69
2022/07/13 06:28:21;;;;;;;8.27;2.90;;;;;;;;;;5032252;28;20511;-69
2022/07/13 06:30:49;;;;;;;7.05;2.58;;;;;;;;;;5032355;28;20069;-70
2022/07/13 06:33:16;;;;;;;9.20;3.28;;;;;;;;;;5032023;28;20091;-70
2022/07/13 06:35:44;;;;;;;8.25;3.00;;;;;;;;;;5037442;28;20387;-69
2022/07/13 06:38:11;;;;;;;8.45;3.45;;;;;;;;;;5029046;28;20049;-70
2022/07/13 06:40:39;;;;;;;5.60;3.03;;;;;;;;;;5032267;28;20068;-70
2022/07/13 06:43:06;;;;;;;8.70;3.05;;;;;;;;;;5032317;28;20045;-70
2022/07/13 06:45:34;;;;;;;10.07;3.63;;;;;;;;;;5032093;28;20096;-70
2022/07/13 06:48:01;;;;;;;7.22;2.90;;;;;;;;;;5030990;28;20090;-70
2022/07/13 06:50:29;;;;;;;4.55;3.20;;;;;;;;;;5034429;28;20042;-69
2022/07/13 06:52:57;;;;;;;5.93;2.47;;;;;;;;;;5030765;28;20064;-70
2022/07/13 06:55:25;;;;;;;2.50;2.05;;;;;;;;;;5032083;28;20038;-69
2022/07/13 06:57:52;;;;;;;4.53;3.03;;;;;;;;;;5032037;28;20117;-70
2022/07/13 07:00:19;;;;;;;3.65;2.30;;;;;;;;;;5032329;28;20092;-69
2022/07/13 07:02:47;;;;;;;7.90;3.33;;;;;;;;;;5031892;28;20045;-69
2022/07/13 07:05:15;;;;;;;4.68;3.10;;;;;;;;;;5032251;28;20037;-69
2022/07/13 07:07:43;;;;;;;6.03;2.88;;;;;;;;;;5032276;28;20046;-69
2022/07/13 07:10:10;;;;;;;5.22;3.20;;;;;;;;;;5030911;28;20349;-70
2022/07/13 07:12:38;;;;;;;5.85;3.28;;;;;;;;;;5031151;28;20435;-70
2022/07/13 07:15:06;;;;;;;8.90;2.78;;;;;;;;;;5032475;28;20065;-71
2022/07/13 07:17:34;;;;;;;5.05;2.72;;;;;;;;;;5031700;28;20491;-70
2022/07/13 07:20:06;;;;;;;4.75;2.45;;;;;;;;;;5034005;28;20041;-70
2022/07/13 07:22:34;;;;;;;6.32;2.72;;;;;;;;;;5034501;28;20046;-70
2022/07/13 07:25:01;;;;;;;8.65;2.63;;;;;;;;;;5035706;28;20052;-70
2022/07/13 07:27:29;;;;;;;7.35;2.38;;;;;;;;;;5035624;28;20391;-70
2022/07/13 07:29:56;;;;;;;6.50;2.47;;;;;;;;;;5035689;28;20479;-70
2022/07/13 07:32:24;;;;;;;5.45;2.35;;;;;;;;;;5035496;28;20048;-70
2022/07/13 07:34:51;;;;;;;5.18;2.97;;;;;;;;;;5035808;28;20038;-70
2022/07/13 07:37:22;;;;;;;13.25;7.47;;;;;;;;;;5035444;28;20049;-70
2022/07/13 07:39:50;;;;;;;6.28;2.40;;;;;;;;;;5035379;28;20076;-70
2022/07/13 07:42:18;;;;;;;7.13;2.60;;;;;;;;;;5035677;28;20064;-69
2022/07/13 07:44:45;;;;;;;5.07;2.30;;;;;;;;;;5035244;28;20049;-70
2022/07/13 07:47:13;;;;;;;5.72;2.45;;;;;;;;;;5035295;28;20038;-71
2022/07/13 07:49:41;;;;;;;15.85;2.97;;;;;;;;;;5035298;28;20037;-70
2022/07/13 07:52:08;;;;;;;6.18;1.80;;;;;;;;;;5035296;28;20045;-69
2022/07/13 07:54:56;;;;;;;6.93;2.40;;;;;;;;;;5034936;28;20116;-69
2022/07/13 07:57:28;;;;;;;7.63;2.75;;;;;;;;;;5034798;28;20060;-69
2022/07/13 07:59:56;;;;;;;4.13;2.85;;;;;;;;;;5035086;28;20041;-70
2022/07/13 08:02:23;;;;;;;5.55;2.17;;;;;;;;;;5034840;28;20045;-70
2022/07/13 08:04:51;;;;;;;5.88;3.30;;;;;;;;;;5034959;28;20041;-69
2022/07/13 08:07:18;;;;;;;3.30;2.45;;;;;;;;;;5034970;28;20052;-70
2022/07/13 08:09:45;;;;;;;5.03;2.20;;;;;;;;;;5035069;28;20049;-70
2022/07/13 08:12:13;;;;;;;3.28;1.70;;;;;;;;;;5035149;28;20072;-70
2022/07/13 08:14:41;;;;;;;4.70;2.05;;;;;;;;;;5034810;28;20107;-71
2022/07/13 08:17:09;;;;;;;6.30;2.33;;;;;;;;;;5034641;28;20124;-69
2022/07/13 08:19:37;;;;;;;4.13;1.95;;;;;;;;;;5034514;28;20033;-68
2022/07/13 08:22:07;;;;;;;6.03;1.70;;;;;;;;;;5034388;28;20160;-69
2022/07/13 08:24:35;;;;;;;4.20;2.00;;;;;;;;;;5032958;28;20072;-69
2022/07/13 08:27:02;;;;;;;4.78;2.90;;;;;;;;;;5034505;28;20083;-69
2022/07/13 08:29:30;;;;;;;5.63;3.60;;;;;;;;;;5034276;28;20108;-69
2022/07/13 08:31:57;;;;;;;5.38;2.70;;;;;;;;;;5033131;28;20487;-69
2022/07/13 08:39:57;;;;;;;2.85;1.73;;;;;;;;;;5032985;28;20103;-69
2022/07/13 08:42:24;;;;;;;4.82;2.58;;;;;;;;;;5034022;28;20049;-70
2022/07/13 08:44:52;;;;;;;4.57;1.63;;;;;;;;;;5034180;28;20057;-69
2022/07/13 08:47:19;;;;;;;4.53;1.80;;;;;;;;;;5033955;28;20408;-69
2022/07/13 08:49:49;;;;;;;4.00;2.45;;;;;;;;;;5033198;28;20346;-69
2022/07/13 08:52:16;;;;;;;4.50;2.20;;;;;;;;;;5034043;28;20030;-70
2022/07/13 08:54:45;;;;;;;4.30;2.05;;;;;;;;;;5034099;28;20066;-70
2022/07/13 08:57:17;;;;;;;3.38;1.90;;;;;;;;;;5033750;28;20038;-70
2022/07/13 08:59:44;;;;;;;3.15;1.77;;;;;;;;;;5034000;28;20076;-69
2022/07/13 09:02:12;;;;;;;4.70;1.90;;;;;;;;;;5033648;28;20045;-70
2022/07/13 09:04:43;;;;;;;5.05;3.10;;;;;;;;;;5033630;28;20055;-69
2022/07/13 09:07:11;;;;;;;6.10;2.45;;;;;;;;;;5033601;28;20049;-70
2022/07/13 09:09:39;;;;;;;4.22;1.85;;;;;;;;;;5032480;28;20038;-69
2022/07/13 09:12:27;;;;;;;3.20;1.77;;;;;;;;;;5032232;28;20391;-69
2022/07/13 09:15:02;;;;;;;2.47;1.38;;;;;;;;;;5033537;28;20052;-70
2022/07/13 09:17:34;;;;;;;2.63;1.35;;;;;;;;;;5033507;28;20056;-70
2022/07/13 09:20:18;;;;;;;2.80;1.90;;;;;;;;;;5033538;28;20069;-69
2022/07/13 09:22:46;;;;;;;5.70;2.10;;;;;;;;;;5033708;28;20059;-69
2022/07/13 09:25:25;;;;;;;3.38;1.52;;;;;;;;;;5033755;28;20084;-69
2022/07/13 09:27:53;;;;;;;2.05;1.40;;;;;;;;;;5033310;28;20045;-69
2022/07/13 09:30:21;;;;;;;3.28;1.20;;;;;;;;;;5033562;28;20038;-69
2022/07/13 09:32:49;;;;;;;5.63;2.47;;;;;;;;;;5033312;28;20487;-69
2022/07/13 09:35:17;;;;;;;3.15;2.20;;;;;;;;;;5033231;28;20117;-69
2022/07/13 09:37:44;;;;;;;5.20;2.10;;;;;;;;;;5033422;28;20042;-69
2022/07/13 09:40:17;;;;;;;4.80;2.60;;;;;;;;;;5033030;28;20069;-69
2022/07/13 09:46:08;;;;;;;14.25;2.78;;;;;;;;;;5033099;28;20041;-69
2022/07/13 09:48:25;;;;;;;3.17;2.30;;;;;;;;;;5033182;28;20053;-69
2022/07/13 09:50:55;;;;;;;5.63;2.85;;;;;;;;;;5032945;28;20049;-69
2022/07/13 09:53:30;;;;;;;6.30;2.70;;;;;;;;;;5032838;28;20048;-69
2022/07/13 09:55:58;;;;;;;3.70;2.30;;;;;;;;;;5033017;28;20034;-69
2022/07/13 09:58:28;;;;;;;4.00;2.97;;;;;;;;;;5032664;28;20048;-69
2022/07/13 10:00:57;;;;;;;5.05;3.08;;;;;;;;;;5032860;28;20047;-69
2022/07/13 10:03:25;;;;;;;4.90;1.55;;;;;;;;;;5032754;28;20038;-69
2022/07/13 10:05:54;;;;;;;4.72;1.50;;;;;;;;;;5032962;28;20091;-69
2022/07/13 10:08:22;;;;;;;3.55;2.17;;;;;;;;;;5032764;28;20045;-69
2022/07/13 10:10:52;;;;;;;2.97;2.13;;;;;;;;;;5032501;28;20029;-69
2022/07/13 10:13:20;;;;;;;3.25;2.55;;;;;;;;;;5032720;28;20049;-70
2022/07/13 10:15:48;;;;;;;3.58;1.90;;;;;;;;;;5032327;28;20039;-70
2022/07/13 10:18:20;;;;;;;5.45;2.92;;;;;;;;;;5032602;28;20041;-71
2022/07/13 10:21:05;;;;;;;8.18;3.30;;;;;;;;;;5032603;28;20038;-69
2022/07/13 10:23:37;;;;;;;2.15;1.85;;;;;;;;;;5032572;28;20049;-70
2022/07/13 10:26:28;;;;;;;2.45;1.90;;;;;;;;;;5032489;28;20038;-69
2022/07/13 10:29:02;;;;;;;3.50;1.70;;;;;;;;;;5032458;28;20057;-69
2022/07/13 10:31:31;;;;;;;4.03;1.48;;;;;;;;;;5032759;28;20073;-69
2022/07/13 10:33:59;;;;;;;8.07;2.10;;;;;;;;;;5032441;28;20372;-69
2022/07/13 10:36:45;;;;;;;3.65;1.92;;;;;;;;;;5032390;28;20038;-69
2022/07/13 10:39:12;;;;;;;3.40;2.20;;;;;;;;;;5032309;28;20056;-69
2022/07/13 10:41:56;;;;;;;2.55;1.65;;;;;;;;;;5032392;28;20041;-69
2022/07/13 10:44:35;;;;;;;5.57;2.13;;;;;;;;;;5032222;28;20053;-69
2022/07/13 10:47:07;;;;;;;2.88;1.90;;;;;;;;;;5032571;28;20104;-68
2022/07/13 10:49:36;;;;;;;2.58;1.55;;;;;;;;;;5032272;28;20060;-69
2022/07/13 10:52:22;;;;;;;2.08;1.80;;;;;;;;;;5032318;28;20056;-69
2022/07/13 10:55:09;;;;;;;7.10;2.25;;;;;;;;;;5034585;28;20045;-69
2022/07/13 10:57:37;;;;;;;6.97;2.80;;;;;;;;;;5035974;28;20492;-68
2022/07/13 11:00:28;;;;;;;4.07;2.53;;;;;;;;;;5036118;28;20045;-69
2022/07/13 11:03:04;;;;;;;4.20;1.70;;;;;;;;;;5034833;28;20045;-69
2022/07/13 11:05:36;;;;;;;3.03;1.90;;;;;;;;;;5036082;28;20492;-68
2022/07/13 11:08:16;;;;;;;4.05;1.90;;;;;;;;;;5035929;28;20431;-69
2022/07/13 11:10:44;;;;;;;4.85;2.10;;;;;;;;;;5036231;28;20049;-69
2022/07/13 11:13:15;;;;;;;3.35;1.67;;;;;;;;;;5035986;28;20041;-68
2022/07/13 11:15:42;;;;;;;3.17;1.90;;;;;;;;;;5036143;28;20053;-68
2022/07/13 11:18:25;;;;;;;2.72;1.00;;;;;;;;;;5035743;28;20550;-69
2022/07/13 11:21:13;;;;;;;3.30;2.17;;;;;;;;;;5035859;28;20045;-68
2022/07/13 11:26:30;;;;;;;8.65;4.38;;;;;;;;;;5035843;28;20068;-69
2022/07/13 11:29:06;;;;;;;4.35;2.40;;;;;;;;;;5035785;28;20112;-69
2022/07/13 11:31:37;;;;;;;6.97;2.47;;;;;;;;;;5035640;28;20454;-69
2022/07/13 11:34:06;;;;;;;2.13;1.50;;;;;;;;;;5035809;28;20400;-69
2022/07/13 11:36:34;;;;;;;3.28;1.20;;;;;;;;;;5035438;28;20480;-68
2022/07/13 11:39:02;;;;;;;5.40;1.30;;;;;;;;;;5034217;28;20041;-69
2022/07/13 11:41:29;;;;;;;3.00;1.40;;;;;;;;;;5035324;28;20041;-69
2022/07/13 11:43:57;;;;;;;2.83;1.30;;;;;;;;;;5035241;28;20112;-69
2022/07/13 11:46:25;;;;;;;2.38;1.90;;;;;;;;;;5035327;28;20479;-69
2022/07/13 11:49:03;;;;;;;5.72;2.67;;;;;;;;;;5035124;28;20045;-69
2022/07/13 11:51:31;;;;;;;3.45;1.30;;;;;;;;;;5035198;28;20068;-70
2022/07/13 11:54:12;;;;;;;3.40;2.33;;;;;;;;;;5034981;28;20438;-69
2022/07/13 11:56:52;;;;;;;2.88;0.85;;;;;;;;;;5035308;28;20052;-69
2022/07/13 11:59:39;;;;;;;3.92;1.52;;;;;;;;;;5035079;28;20108;-69
2022/07/13 12:02:08;;;;;;;4.40;1.13;;;;;;;;;;5034940;28;20049;-69
2022/07/13 12:04:46;;;;;;;3.60;1.65;;;;;;;;;;5033757;28;20068;-70
2022/07/13 12:07:14;;;;;;;5.53;1.98;;;;;;;;;;5034894;28;20039;-69
2022/07/13 12:09:51;;;;;;;3.92;2.05;;;;;;;;;;5034864;28;20195;-70
2022/07/13 12:12:20;;;;;;;2.65;1.17;;;;;;;;;;5035062;28;20111;-70
2022/07/13 12:14:49;;;;;;;3.22;1.63;;;;;;;;;;5034782;28;20045;-70
2022/07/13 12:17:17;;;;;;;6.82;2.30;;;;;;;;;;5034749;28;20490;-69
2022/07/13 12:19:45;;;;;;;3.45;1.60;;;;;;;;;;5034699;28;20044;-70
2022/07/13 12:22:12;;;;;;;3.17;1.65;;;;;;;;;;5034731;28;20469;-70
2022/07/13 12:24:45;;;;;;;3.50;1.65;;;;;;;;;;5034598;28;20044;-69
2022/07/13 12:27:21;;;;;;;6.00;1.40;;;;;;;;;;5034646;28;20049;-69
2022/07/13 12:29:50;;;;;;;5.07;1.42;;;;;;;;;;5034499;28;20120;-69
2022/07/13 12:32:18;;;;;;;2.55;1.35;;;;;;;;;;5034635;28;20038;-69
2022/07/13 12:34:52;;;;;;;5.30;1.50;;;;;;;;;;5034369;28;20056;-69
2022/07/13 12:37:38;;;;;;;2.47;1.27;;;;;;;;;;5033780;28;20044;-69
2022/07/13 12:40:06;;;;;;;4.22;1.13;;;;;;;;;;5034242;28;20052;-69
2022/07/13 12:42:35;;;;;;;7.22;1.90;;;;;;;;;;5034300;28;20117;-69
2022/07/13 12:45:14;;;;;;;2.78;1.40;;;;;;;;;;5033925;28;20088;-69
2022/07/13 12:47:42;;;;;;;2.92;1.40;;;;;;;;;;5034351;28;20438;-69
2022/07/13 12:50:29;;;;;;;3.15;1.30;;;;;;;;;;5033927;28;20041;-69
2022/07/13 12:52:58;;;;;;;2.63;1.25;;;;;;;;;;5034155;28;20080;-69
2022/07/13 12:55:30;;;;;;;3.45;1.40;;;;;;;;;;5034033;28;20084;-69
2022/07/13 12:57:57;;;;;;;3.40;1.17;;;;;;;;;;5033792;28;20049;-69
2022/07/13 13:00:26;;;;;;;2.85;1.55;;;;;;;;;;5032840;28;20049;-69
2022/07/13 13:02:53;;;;;;;3.72;1.33;;;;;;;;;;5031832;28;20033;-69
2022/07/13 13:05:21;;;;;;;4.75;2.20;;;;;;;;;;5032754;28;20044;-69
2022/07/13 13:07:49;;;;;;;3.35;1.60;;;;;;;;;;5029836;28;20100;-69
2022/07/13 13:10:17;;;;;;;4.45;1.85;;;;;;;;;;5033121;28;20045;-69
2022/07/13 13:12:44;;;;;;;4.72;1.45;;;;;;;;;;5033407;28;20153;-69
2022/07/13 13:15:12;;;;;;;5.65;2.50;;;;;;;;;;5031977;28;20054;-69
2022/07/13 13:17:39;;;;;;;6.35;3.00;;;;;;;;;;5032427;28;20037;-69
2022/07/13 13:20:07;;;;;;;5.55;2.17;;;;;;;;;;5033170;28;20037;-70
2022/07/13 13:22:38;;;;;;;2.97;1.90;;;;;;;;;;5033087;28;20044;-69
2022/07/13 13:25:06;;;;;;;2.33;1.60;;;;;;;;;;5033117;28;20034;-69
2022/07/13 13:27:33;;;;;;;4.05;1.58;;;;;;;;;;5032864;28;20388;-69
2022/07/13 13:33:07;;;;;;;5.32;1.90;;;;;;;;;;5032749;28;20402;-68
2022/07/13 13:35:35;;;;;;;3.97;1.52;;;;;;;;;;5033069;28;20045;-69
2022/07/13 13:38:02;;;;;;;2.80;1.38;;;;;;;;;;5031589;28;20116;-68
2022/07/13 13:40:29;;;;;;;3.63;1.45;;;;;;;;;;5032836;28;20045;-68
2022/07/13 13:42:57;;;;;;;3.88;1.17;;;;;;;;;;5032686;28;20037;-69
2022/07/13 13:45:24;;;;;;;2.25;1.40;;;;;;;;;;5032619;28;20057;-69
2022/07/13 13:47:52;;;;;;;4.60;1.98;;;;;;;;;;5031941;28;20034;-69
2022/07/13 13:50:20;;;;;;;2.38;1.48;;;;;;;;;;5032366;28;20483;-70
2022/07/13 13:52:47;;;;;;;5.93;1.98;;;;;;;;;;5032374;28;20048;-71
2022/07/13 13:55:15;;;;;;;6.07;1.77;;;;;;;;;;5032910;28;20052;-71
2022/07/13 13:57:44;;;;;;;5.43;1.80;;;;;;;;;;5024732;28;20048;-71
2022/07/13 14:00:12;;;;;;;2.22;1.45;;;;;;;;;;5032312;28;20049;-71
2022/07/13 14:02:56;;;;;;;4.43;2.30;;;;;;;;;;5026813;28;20483;-70
2022/07/13 14:05:24;;;;;;;2.80;1.65;;;;;;;;;;5031907;28;20446;-71
2022/07/13 14:07:53;;;;;;;4.97;2.58;;;;;;;;;;5032121;28;20037;-70
2022/07/13 14:10:20;;;;;;;3.95;2.35;;;;;;;;;;5031950;28;20037;-70
2022/07/13 14:12:48;;;;;;;4.07;2.58;;;;;;;;;;5031890;28;20041;-70
2022/07/13 14:15:15;;;;;;;2.50;1.60;;;;;;;;;;5031879;28;20432;-71
2022/07/13 14:17:43;;;;;;;2.40;1.45;;;;;;;;;;5032034;28;20053;-70
2022/07/13 14:20:10;;;;;;;6.05;1.40;;;;;;;;;;5030652;28;20087;-70
2022/07/13 14:22:48;;;;;;;4.60;1.90;;;;;;;;;;5031404;28;20034;-70
2022/07/13 14:25:16;;;;;;;6.18;3.90;;;;;;;;;;5030131;28;20037;-70
2022/07/13 14:27:44;;;;;;;2.83;1.52;;;;;;;;;;5031691;28;20041;-70
2022/07/13 14:30:11;;;;;;;3.53;1.98;;;;;;;;;;5030490;28;20045;-69
2022/07/13 14:32:39;;;;;;;1.90;1.65;;;;;;;;;;5030212;28;20041;-70
2022/07/13 14:35:08;;;;;;;3.17;1.50;;;;;;;;;;5031678;28;20049;-69
2022/07/13 14:37:37;;;;;;;3.70;1.20;;;;;;;;;;5031795;28;20091;-69
2022/07/13 14:40:06;;;;;;;4.38;1.60;;;;;;;;;;5031852;28;20045;-69
2022/07/13 14:42:34;;;;;;;12.00;1.42;;;;;;;;;;5031842;28;20076;-69
2022/07/13 14:45:02;;;;;;;2.45;1.08;;;;;;;;;;5031155;28;20053;-69
2022/07/13 14:47:29;;;;;;;1.85;0.73;;;;;;;;;;5031018;28;20056;-69
2022/07/13 14:50:17;;;;;;;2.53;1.75;;;;;;;;;;5031912;28;20042;-70
2022/07/13 14:52:53;;;;;;;1.80;1.30;;;;;;;;;;5021820;28;20072;-69
2022/07/13 14:55:20;;;;;;;3.00;1.10;;;;;;;;;;5030487;28;20408;-71
2022/07/13 14:57:47;;;;;;;4.32;1.58;;;;;;;;;;5030111;28;20041;-70
2022/07/13 15:00:15;;;;;;;5.30;0.80;;;;;;;;;;5031157;28;20037;-69
2022/07/13 15:02:43;;;;;;;2.63;1.10;;;;;;;;;;5031077;28;20049;-69
2022/07/13 15:05:15;;;;;;;2.25;1.20;;;;;;;;;;5031598;28;20045;-70
2022/07/13 15:07:43;;;;;;;2.55;2.00;;;;;;;;;;5031118;28;20041;-71
2022/07/13 15:10:12;;;;;;;1.80;1.40;;;;;;;;;;5031106;28;20522;-71
2022/07/13 15:12:55;;;;;;;2.90;1.00;;;;;;;;;;5031007;28;20104;-70